Terminal Aerodrome Forecast
Issued by NWS

Home | Current Version | Previous Version | Graphics & Text | Print | Product List | Glossary On
Versions: 1 2 3 4 5 6 7 8 9 10 11 12 13 14 15 16 17 18 19 20
832
FTUS43 KBIS 010809 AAB
TAFMOT
TAF AMD
KMOT 010809Z 0108/0206 31011KT 6SM -FZDZ BR OVC004
     FM011200 32006KT P6SM OVC006
     FM011800 36004KT P6SM OVC010
     FM020000 03004KT P6SM OVC008=

USA.gov is the U.S. government's official web portal to all federal, state and local government web resources and services.